Time;durP1;ratioP1;P1;durP2;ratioP2;P2;SDS_P1;SDS_P2;PMS_P1;PMS_P2;Temp;Humidity;BMP_temperature;BMP_pressure;BME280_temperature;BME280_humidity;BME280_pressure;Samples;Min_cycle;Max_cycle;Signal;HPM_P1;HPM_P2
2023/06/03 00:01:40;;;;;;;;;;;;;;;14.96;62.80;98676.94;5053548;27;103403;-63
2023/06/03 00:04:11;;;;;;;;;;;;;;;14.74;63.44;98685.13;5050942;27;103131;-63
2023/06/03 00:06:40;;;;;;;;;;;;;;;14.90;63.61;98678.31;5053471;27;103125;-63
2023/06/03 00:09:09;;;;;;;;;;;;;;;14.67;63.99;98676.03;5049745;27;104027;-63
2023/06/03 00:11:37;;;;;;;;;;;;;;;14.56;64.33;98673.50;5048664;27;103369;-63
2023/06/03 00:14:05;;;;;;;;;;;;;;;14.40;64.55;98674.84;5054177;27;103216;-62
2023/06/03 00:16:33;;;;;;;;;;;;;;;14.46;64.75;98668.97;5052787;27;102842;-62
2023/06/03 00:19:02;;;;;;;;;;;;;;;14.54;64.45;98662.16;5036068;27;102866;-63
2023/06/03 00:21:29;;;;;;;;;;;;;;;14.76;63.58;98668.09;5046488;27;103332;-63
2023/06/03 00:23:59;;;;;;;;;;;;;;;14.73;63.71;98675.50;5055211;27;103136;-62
2023/06/03 00:26:26;;;;;;;;;;;;;;;14.91;62.87;98671.16;5056303;27;102682;-62
2023/06/03 00:28:58;;;;;;;;;;;;;;;14.79;63.64;98666.97;5034028;27;102986;-62
2023/06/03 00:31:25;;;;;;;;;;;;;;;14.62;64.05;98673.78;5047482;27;104698;-62
2023/06/03 00:33:53;;;;;;;;;;;;;;;14.76;63.42;98673.41;5057771;27;103255;-63
2023/06/03 00:36:21;;;;;;;;;;;;;;;14.77;63.39;98674.22;5035042;27;103336;-62
2023/06/03 00:38:49;;;;;;;;;;;;;;;14.70;63.78;98668.63;5034522;27;103893;-62
2023/06/03 00:41:19;;;;;;;;;;;;;;;14.60;64.28;98669.56;5049703;27;103763;-63
2023/06/03 00:43:47;;;;;;;;;;;;;;;14.56;64.88;98666.34;5031771;27;106106;-63
2023/06/03 00:46:17;;;;;;;;;;;;;;;14.54;64.64;98662.16;5055862;27;102752;-63
2023/06/03 00:48:44;;;;;;;;;;;;;;;14.18;66.16;98667.03;5033210;27;102851;-62
2023/06/03 00:51:12;;;;;;;;;;;;;;;14.08;66.35;98660.00;5051865;27;103927;-63
2023/06/03 00:53:40;;;;;;;;;;;;;;;13.91;67.08;98661.47;5035331;27;103130;-62
2023/06/03 00:56:09;;;;;;;;;;;;;;;14.31;65.82;98657.03;5035129;27;102911;-62
2023/06/03 00:58:38;;;;;;;;;;;;;;;14.30;65.89;98649.19;5049722;27;102754;-62
2023/06/03 01:01:06;;;;;;;;;;;;;;;14.38;65.89;98647.56;5047643;27;103338;-63
2023/06/03 01:03:34;;;;;;;;;;;;;;;14.49;64.46;98655.41;5029133;27;104177;-63
2023/06/03 01:06:07;;;;;;;;;;;;;;;14.59;63.98;98654.59;5032480;27;102660;-62
2023/06/03 01:08:43;;;;;;;;;;;;;;;14.62;64.82;98654.34;5033241;27;104235;-63
2023/06/03 01:11:15;;;;;;;;;;;;;;;14.33;65.89;98654.25;5034242;27;103236;-63
2023/06/03 01:13:48;;;;;;;;;;;;;;;14.20;66.65;98649.16;5055920;27;103218;-63
2023/06/03 01:16:22;;;;;;;;;;;;;;;13.89;67.72;98655.47;5045072;27;102674;-63
2023/06/03 01:18:50;;;;;;;;;;;;;;;13.89;67.86;98652.81;5033865;27;102843;-63
2023/06/03 01:21:18;;;;;;;;;;;;;;;13.60;68.86;98650.00;5030371;27;103234;-62
2023/06/03 01:23:48;;;;;;;;;;;;;;;13.55;69.28;98646.03;5033686;27;103293;-63
2023/06/03 01:26:16;;;;;;;;;;;;;;;13.75;68.32;98642.53;5036935;27;102727;-62
2023/06/03 01:28:49;;;;;;;;;;;;;;;13.53;69.20;98648.00;5054835;27;102931;-62
2023/06/03 01:31:17;;;;;;;;;;;;;;;13.73;68.18;98645.31;5038411;27;103620;-62
2023/06/03 01:33:45;;;;;;;;;;;;;;;13.75;68.68;98647.84;5034143;27;103370;-62
2023/06/03 01:36:14;;;;;;;;;;;;;;;13.85;67.76;98648.72;5040010;27;103123;-63
2023/06/03 01:38:42;;;;;;;;;;;;;;;13.79;68.23;98649.25;5037170;27;102846;-62
2023/06/03 01:41:11;;;;;;;;;;;;;;;13.98;67.22;98648.50;5049742;27;103366;-63
2023/06/03 01:43:39;;;;;;;;;;;;;;;13.58;69.12;98656.41;5038137;27;103162;-62
2023/06/03 01:46:08;;;;;;;;;;;;;;;13.53;69.24;98648.00;5037176;27;102865;-62
2023/06/03 01:48:36;;;;;;;;;;;;;;;13.67;68.75;98645.00;5057552;27;102631;-62
2023/06/03 01:51:04;;;;;;;;;;;;;;;13.67;68.83;98647.66;5053470;27;104094;-62
2023/06/03 01:53:32;;;;;;;;;;;;;;;13.54;69.60;98654.97;5037667;27;103175;-62
2023/06/03 01:56:00;;;;;;;;;;;;;;;13.55;69.15;98652.19;5056343;27;103255;-62
2023/06/03 01:58:33;;;;;;;;;;;;;;;13.50;69.56;98643.75;5037980;27;103132;-62
2023/06/03 02:01:02;;;;;;;;;;;;;;;13.40;69.71;98647.34;5028684;27;103488;-62
2023/06/03 02:03:30;;;;;;;;;;;;;;;13.47;69.72;98654.66;5050598;27;103381;-63
2023/06/03 02:05:58;;;;;;;;;;;;;;;13.82;67.30;98649.81;5052591;27;102784;-62
2023/06/03 02:08:26;;;;;;;;;;;;;;;13.94;67.22;98643.47;5049084;27;102752;-62
2023/06/03 02:10:55;;;;;;;;;;;;;;;13.80;67.96;98650.94;5036238;27;103234;-62
2023/06/03 02:13:24;;;;;;;;;;;;;;;13.95;67.64;98645.13;5034860;27;103198;-63
2023/06/03 02:15:53;;;;;;;;;;;;;;;13.88;68.28;98648.47;5037294;27;102605;-62
2023/06/03 02:18:21;;;;;;;;;;;;;;;13.64;68.83;98650.56;5034164;27;102862;-63
2023/06/03 02:20:49;;;;;;;;;;;;;;;13.57;69.76;98644.09;5038078;27;103772;-62
2023/06/03 02:23:19;;;;;;;;;;;;;;;13.66;69.10;98649.47;5053480;27;103113;-62
2023/06/03 02:25:48;;;;;;;;;;;;;;;13.72;68.88;98643.63;5036690;27;102702;-63
2023/06/03 02:28:16;;;;;;;;;;;;;;;13.80;67.54;98645.63;5046598;27;103019;-62
2023/06/03 02:30:44;;;;;;;;;;;;;;;13.91;67.05;98640.22;5034781;27;103126;-63
2023/06/03 02:33:14;;;;;;;;;;;;;;;13.76;68.26;98644.19;5034522;27;103232;-62
2023/06/03 02:35:42;;;;;;;;;;;;;;;13.91;66.41;98643.72;5056568;27;102687;-61
2023/06/03 02:38:10;;;;;;;;;;;;;;;13.97;66.38;98641.50;5038611;27;102699;-62
2023/06/03 02:40:38;;;;;;;;;;;;;;;13.98;66.79;98644.03;5045946;27;103320;-62
2023/06/03 02:43:06;;;;;;;;;;;;;;;13.97;67.40;98642.34;5041435;27;103288;-63
2023/06/03 02:45:34;;;;;;;;;;;;;;;13.84;68.13;98647.03;5035385;27;102878;-63
2023/06/03 02:48:02;;;;;;;;;;;;;;;13.44;70.74;98656.72;5060221;27;102606;-62
2023/06/03 02:50:31;;;;;;;;;;;;;;;13.41;70.46;98654.34;5032611;27;103247;-62
2023/06/03 02:52:59;;;;;;;;;;;;;;;13.44;69.96;98654.91;5033049;27;104917;-62
2023/06/03 02:55:28;;;;;;;;;;;;;;;13.59;68.98;98656.25;5036576;27;102715;-62
2023/06/03 02:57:56;;;;;;;;;;;;;;;13.63;69.10;98657.69;5050980;27;103943;-62
2023/06/03 03:00:23;;;;;;;;;;;;;;;13.06;72.20;98655.44;5057188;27;104218;-62
2023/06/03 03:02:52;;;;;;;;;;;;;;;13.42;69.68;98662.16;5037060;27;103377;-63
2023/06/03 03:05:20;;;;;;;;;;;;;;;12.74;73.86;98660.72;5037932;27;102695;-62
2023/06/03 03:07:49;;;;;;;;;;;;;;;12.70;74.18;98663.75;5043313;27;103139;-62
2023/06/03 03:10:17;;;;;;;;;;;;;;;12.96;73.17;98658.97;5041090;27;103431;-62
2023/06/03 03:12:45;;;;;;;;;;;;;;;12.76;73.75;98657.97;5034485;27;103242;-62
2023/06/03 03:15:13;;;;;;;;;;;;;;;12.99;72.02;98656.94;5037787;27;102742;-62
2023/06/03 03:17:41;;;;;;;;;;;;;;;13.19;71.25;98665.91;5039170;27;102940;-63
2023/06/03 03:20:10;;;;;;;;;;;;;;;13.27;70.15;98668.75;5036922;27;103261;-62
2023/06/03 03:22:41;;;;;;;;;;;;;;;13.19;71.04;98656.13;5030983;27;105325;-62
2023/06/03 03:25:11;;;;;;;;;;;;;;;13.09;72.67;98668.47;5051571;27;103123;-61
2023/06/03 03:27:41;;;;;;;;;;;;;;;13.19;71.30;98668.56;5038597;27;102713;-61
2023/06/03 03:30:10;;;;;;;;;;;;;;;13.05;72.69;98668.84;5039270;27;103267;-62
2023/06/03 03:32:39;;;;;;;;;;;;;;;12.84;73.43;98668.78;5035846;27;103395;-62
2023/06/03 03:35:15;;;;;;;;;;;;;;;12.85;73.29;98667.81;5052385;27;102720;-62
2023/06/03 03:37:45;;;;;;;;;;;;;;;12.59;75.27;98679.69;5040116;27;102717;-62
2023/06/03 03:40:19;;;;;;;;;;;;;;;12.94;72.69;98672.34;5050102;27;103877;-62
2023/06/03 03:42:51;;;;;;;;;;;;;;;12.90;73.50;98676.25;5037254;27;103115;-62
2023/06/03 03:45:22;;;;;;;;;;;;;;;12.85;73.70;98673.13;5033666;27;103096;-61
2023/06/03 03:47:51;;;;;;;;;;;;;;;12.84;73.64;98682.03;5039542;27;104129;-62
2023/06/03 03:50:39;;;;;;;;;;;;;;;12.96;72.74;98678.38;5051431;27;103235;-61
2023/06/03 03:53:08;;;;;;;;;;;;;;;12.53;75.99;98681.03;5040665;27;103527;-62
2023/06/03 03:55:42;;;;;;;;;;;;;;;12.82;73.25;98678.69;5033605;27;102713;-62
2023/06/03 03:58:22;;;;;;;;;;;;;;;12.83;73.93;98675.03;5038646;27;103647;-62
2023/06/03 04:00:50;;;;;;;;;;;;;;;12.56;76.25;98674.63;5029313;27;103097;-62
2023/06/03 04:03:19;;;;;;;;;;;;;;;12.83;74.34;98680.34;5035802;27;103301;-62
2023/06/03 04:05:48;;;;;;;;;;;;;;;12.94;73.85;98684.78;5047195;27;102587;-62
2023/06/03 04:08:26;;;;;;;;;;;;;;;12.87;74.52;98684.44;5032843;27;103857;-62
2023/06/03 04:10:58;;;;;;;;;;;;;;;12.84;74.74;98682.03;5049199;27;103104;-60
2023/06/03 04:13:26;;;;;;;;;;;;;;;12.77;74.79;98691.47;5048680;27;103152;-60
2023/06/03 04:15:53;;;;;;;;;;;;;;;13.12;72.53;98689.44;5032420;27;102706;-60
2023/06/03 04:18:22;;;;;;;;;;;;;;;13.16;73.73;98692.69;5032218;27;102739;-60
2023/06/03 04:20:56;;;;;;;;;;;;;;;13.30;73.43;98695.84;5029948;27;104135;-59
2023/06/03 04:23:27;;;;;;;;;;;;;;;13.39;72.13;98698.75;5033435;27;103371;-59
2023/06/03 04:25:58;;;;;;;;;;;;;;;13.39;72.74;98688.94;5028309;27;102658;-60
2023/06/03 04:28:25;;;;;;;;;;;;;;;13.38;73.58;98691.75;5049531;27;104141;-60
2023/06/03 04:30:55;;;;;;;;;;;;;;;13.49;72.01;98696.97;5034532;27;103371;-63
2023/06/03 04:33:22;;;;;;;;;;;;;;;13.51;71.50;98693.22;5053137;27;103095;-63
2023/06/03 04:35:51;;;;;;;;;;;;;;;13.60;71.61;98696.91;5042560;27;102709;-62
2023/06/03 04:38:18;;;;;;;;;;;;;;;13.78;70.91;98698.03;5051297;27;103175;-63
2023/06/03 04:40:46;;;;;;;;;;;;;;;13.75;71.99;98703.59;5030470;27;103261;-63
2023/06/03 04:43:19;;;;;;;;;;;;;;;13.93;70.79;98707.31;5049323;27;103798;-62
2023/06/03 04:45:49;;;;;;;;;;;;;;;14.02;70.53;98695.91;5032587;27;103481;-62
2023/06/03 04:48:17;;;;;;;;;;;;;;;14.07;71.27;98700.81;5032259;27;102985;-59
2023/06/03 04:50:46;;;;;;;;;;;;;;;14.06;75.34;98689.38;5049410;27;104280;-62
2023/06/03 04:53:14;;;;;;;;;;;;;;;13.54;73.25;98700.09;5033555;27;103324;-61
2023/06/03 04:55:43;;;;;;;;;;;;;;;13.84;77.93;98690.34;5029242;27;102769;-62
2023/06/03 04:58:18;;;;;;;;;;;;;;;13.76;72.18;98694.63;5038166;27;102688;-62
2023/06/03 05:00:48;;;;;;;;;;;;;;;13.85;72.24;98691.22;5034231;27;105063;-61
2023/06/03 05:03:17;;;;;;;;;;;;;;;13.98;74.10;98686.50;5033436;27;105628;-64
2023/06/03 05:05:45;;;;;;;;;;;;;;;13.79;71.65;98681.09;5032504;27;103046;-61
2023/06/03 05:08:18;;;;;;;;;;;;;;;13.72;71.75;98693.22;5030326;27;102957;-61
2023/06/03 05:10:48;;;;;;;;;;;;;;;13.80;72.22;98683.66;5038262;27;103115;-61
2023/06/03 05:13:20;;;;;;;;;;;;;;;14.02;72.10;98692.41;5032108;27;104851;-60
2023/06/03 05:15:48;;;;;;;;;;;;;;;14.04;72.15;98691.31;5032950;27;102821;-61
2023/06/03 05:18:16;;;;;;;;;;;;;;;14.10;72.02;98687.28;5053200;27;102700;-61
2023/06/03 05:20:44;;;;;;;;;;;;;;;14.19;71.85;98679.34;5032271;27;103999;-61
2023/06/03 05:23:13;;;;;;;;;;;;;;;14.38;72.22;98681.25;5032871;27;105093;-62
2023/06/03 05:25:44;;;;;;;;;;;;;;;14.85;71.80;98685.03;5032475;27;102714;-62
2023/06/03 05:28:13;;;;;;;;;;;;;;;14.97;70.51;98683.91;5036204;27;102749;-61
2023/06/03 05:30:42;;;;;;;;;;;;;;;14.92;69.81;98688.81;5030608;27;103284;-61
2023/06/03 05:33:10;;;;;;;;;;;;;;;15.13;68.79;98686.84;5032512;27;104965;-60
2023/06/03 05:35:40;;;;;;;;;;;;;;;14.91;68.10;98681.78;5032928;27;102656;-60
2023/06/03 05:38:09;;;;;;;;;;;;;;;14.97;68.49;98676.78;5035157;27;102894;-60
2023/06/03 05:40:37;;;;;;;;;;;;;;;15.12;68.99;98679.88;5033702;27;103240;-60
2023/06/03 05:43:04;;;;;;;;;;;;;;;14.62;68.92;98686.25;5033038;27;103886;-60
2023/06/03 05:45:32;;;;;;;;;;;;;;;14.84;68.60;98683.34;5029255;27;102712;-61
2023/06/03 05:48:03;;;;;;;;;;;;;;;15.25;68.27;98675.09;5042643;27;102751;-62
2023/06/03 05:50:31;;;;;;;;;;;;;;;15.29;66.96;98681.00;5031728;27;103458;-62
2023/06/03 05:52:59;;;;;;;;;;;;;;;15.48;67.67;98681.00;5043392;27;103763;-61
2023/06/03 05:55:27;;;;;;;;;;;;;;;15.83;66.13;98680.38;5043144;27;103664;-62
2023/06/03 05:57:54;;;;;;;;;;;;;;;15.64;65.53;98682.09;5021988;27;104221;-62
2023/06/03 06:00:23;;;;;;;;;;;;;;;15.56;66.45;98678.47;5034284;27;103204;-62
2023/06/03 06:02:55;;;;;;;;;;;;;;;15.73;66.70;98684.88;5024751;27;105171;-62
2023/06/03 06:05:24;;;;;;;;;;;;;;;15.80;64.54;98680.69;5023799;27;102833;-62
2023/06/03 06:07:53;;;;;;;;;;;;;;;15.97;64.02;98671.94;5039280;27;104078;-62
2023/06/03 06:10:21;;;;;;;;;;;;;;;16.26;63.33;98680.66;5020117;27;104155;-61
2023/06/03 06:12:49;;;;;;;;;;;;;;;16.13;61.87;98680.16;5024287;27;103804;-61
2023/06/03 06:15:17;;;;;;;;;;;;;;;15.62;64.30;98683.22;5025209;27;102779;-61
2023/06/03 06:17:46;;;;;;;;;;;;;;;16.49;63.26;98683.78;5018434;27;104248;-62
2023/06/03 06:20:35;;;;;;;;;;;;;;;16.47;61.98;98681.25;5028018;27;105035;-62
2023/06/03 06:23:31;;;;;;;;;;;;;;;16.13;64.32;98683.66;5015589;27;102969;-62
2023/06/03 06:25:59;;;;;;;;;;;;;;;16.49;62.92;98673.94;5041709;27;103101;-62
2023/06/03 06:28:29;;;;;;;;;;;;;;;16.24;63.93;98679.97;5031136;27;102826;-61
2023/06/03 06:31:03;;;;;;;;;;;;;;;16.08;64.55;98685.09;5026925;27;104125;-61
2023/06/03 06:33:37;;;;;;;;;;;;;;;16.14;64.68;98689.84;5026457;27;104081;-61
2023/06/03 06:36:21;;;;;;;;;;;;;;;16.72;63.28;98674.41;5028007;27;103579;-61
2023/06/03 06:38:50;;;;;;;;;;;;;;;16.72;63.75;98685.94;5017305;27;103116;-62
2023/06/03 06:41:18;;;;;;;;;;;;;;;16.71;62.69;98684.25;5025096;27;103633;-62
2023/06/03 06:43:46;;;;;;;;;;;;;;;16.73;63.86;98682.25;5024044;27;103646;-62
2023/06/03 06:46:14;;;;;;;;;;;;;;;16.49;63.18;98678.44;5040454;27;102681;-58
2023/06/03 06:48:42;;;;;;;;;;;;;;;16.60;62.47;98687.13;5040816;27;102780;-62
2023/06/03 06:51:10;;;;;;;;;;;;;;;16.40;64.20;98685.50;5041609;27;103340;-63
2023/06/03 06:53:38;;;;;;;;;;;;;;;16.52;63.05;98679.00;5043927;27;103332;-62
2023/06/03 06:56:14;;;;;;;;;;;;;;;17.36;61.79;98679.53;5023897;27;102849;-62
2023/06/03 06:58:57;;;;;;;;;;;;;;;16.65;62.29;98678.66;5024551;27;104287;-62
2023/06/03 07:01:24;;;;;;;;;;;;;;;16.57;61.71;98679.41;5019779;27;103435;-62
2023/06/03 07:03:55;;;;;;;;;;;;;;;16.42;61.41;98683.50;5021880;27;103403;-62
2023/06/03 07:06:23;;;;;;;;;;;;;;;17.28;60.69;98682.16;5024725;27;102742;-62
2023/06/03 07:08:56;;;;;;;;;;;;;;;17.77;58.94;98676.22;5042770;27;104008;-62
2023/06/03 07:11:27;;;;;;;;;;;;;;;17.71;58.03;98671.50;5021091;27;104192;-62
2023/06/03 07:13:58;;;;;;;;;;;;;;;18.21;58.34;98674.34;5039405;27;104048;-62
2023/06/03 07:16:26;;;;;;;;;;;;;;;17.92;59.14;98672.00;5021273;27;103883;-62
2023/06/03 07:18:54;;;;;;;;;;;;;;;17.99;58.91;98671.38;5037004;27;104465;-62
2023/06/03 07:21:33;;;;;;;;;;;;;;;18.01;58.51;98664.03;5021705;27;105009;-62
2023/06/03 07:24:03;;;;;;;;;;;;;;;17.74;60.62;98673.88;5041436;27;103014;-62
2023/06/03 07:26:34;;;;;;;;;;;;;;;18.38;59.25;98670.75;5020473;27;103180;-63
2023/06/03 07:29:02;;;;;;;;;;;;;;;19.12;56.35;98672.66;5038869;27;103795;-61
2023/06/03 07:31:31;;;;;;;;;;;;;;;19.07;54.64;98670.47;5019239;27;102959;-61
2023/06/03 07:33:59;;;;;;;;;;;;;;;18.33;55.54;98674.91;5023137;27;103211;-62
2023/06/03 07:36:33;;;;;;;;;;;;;;;19.28;53.88;98671.84;5022030;27;102752;-61
2023/06/03 07:39:04;;;;;;;;;;;;;;;19.77;53.45;98673.53;5025311;27;104006;-62
2023/06/03 07:41:45;;;;;;;;;;;;;;;19.91;53.41;98662.13;5027121;27;103168;-62
2023/06/03 07:44:43;;;;;;;;;;;;;;;19.16;55.95;98667.81;5026925;27;102719;-63
2023/06/03 07:47:13;;;;;;;;;;;;;;;19.73;53.86;98666.84;5039980;27;102764;-63
2023/06/03 07:49:44;;;;;;;;;;;;;;;19.77;54.68;98667.31;5039970;27;102764;-63
2023/06/03 07:52:13;;;;;;;;;;;;;;;20.78;52.38;98675.44;5039855;27;103241;-62
2023/06/03 07:54:41;;;;;;;;;;;;;;;21.27;49.76;98661.72;5043452;27;103159;-63
2023/06/03 07:57:11;;;;;;;;;;;;;;;20.07;51.02;98674.66;5043101;27;102775;-62
2023/06/03 07:59:39;;;;;;;;;;;;;;;21.34;50.19;98671.56;5045666;27;104669;-62
2023/06/03 08:02:09;;;;;;;;;;;;;;;21.44;49.73;98676.72;5048683;27;103267;-62
2023/06/03 08:04:37;;;;;;;;;;;;;;;21.97;48.10;98670.38;5047535;27;102971;-63
2023/06/03 08:07:05;;;;;;;;;;;;;;;20.34;50.44;98681.50;5051413;27;102697;-62
2023/06/03 08:09:34;;;;;;;;;;;;;;;20.39;51.23;98673.75;5047580;27;102732;-63
2023/06/03 08:12:03;;;;;;;;;;;;;;;21.24;50.29;98671.00;5030970;27;106160;-60
2023/06/03 08:14:33;;;;;;;;;;;;;;;22.69;46.64;98667.91;5044558;27;103152;-60
2023/06/03 08:17:03;;;;;;;;;;;;;;;22.99;45.80;98672.19;5049571;27;102878;-60
2023/06/03 08:19:30;;;;;;;;;;;;;;;23.65;46.53;98671.88;5047351;27;103210;-60
2023/06/03 08:21:58;;;;;;;;;;;;;;;24.10;43.62;98672.47;5050573;27;103317;-60
2023/06/03 08:24:26;;;;;;;;;;;;;;;23.19;45.83;98675.94;5027824;27;103236;-61
2023/06/03 08:26:53;;;;;;;;;;;;;;;21.86;46.42;98670.81;5050504;27;102879;-61
2023/06/03 08:29:21;;;;;;;;;;;;;;;22.42;47.45;98678.31;5049347;27;102767;-59
2023/06/03 08:31:50;;;;;;;;;;;;;;;22.55;45.13;98669.56;5035117;27;103472;-59
2023/06/03 08:34:18;;;;;;;;;;;;;;;23.38;46.36;98680.72;5046907;27;103116;-59
2023/06/03 08:36:46;;;;;;;;;;;;;;;24.57;44.52;98672.53;5029689;27;103134;-59
2023/06/03 08:39:13;;;;;;;;;;;;;;;25.49;42.49;98670.16;5046689;27;102781;-59
2023/06/03 08:41:42;;;;;;;;;;;;;;;25.49;42.59;98677.47;5051758;27;104266;-60
2023/06/03 08:44:14;;;;;;;;;;;;;;;25.65;42.41;98686.03;5049474;27;104247;-60
2023/06/03 08:46:44;;;;;;;;;;;;;;;25.69;42.19;98672.88;5051137;27;102624;-60
2023/06/03 08:49:18;;;;;;;;;;;;;;;24.11;41.89;98671.44;5048256;27;104345;-60
2023/06/03 08:51:52;;;;;;;;;;;;;;;25.25;42.99;98676.97;5050068;27;103476;-60
2023/06/03 08:54:21;;;;;;;;;;;;;;;26.12;41.65;98670.59;5055719;27;103149;-60
2023/06/03 08:56:57;;;;;;;;;;;;;;;26.39;41.31;98674.94;5050006;27;102656;-60
2023/06/03 08:59:26;;;;;;;;;;;;;;;26.28;39.48;98670.16;5052944;27;104080;-61
2023/06/03 09:01:56;;;;;;;;;;;;;;;27.49;42.78;98672.00;5051748;27;103243;-61
2023/06/03 09:04:27;;;;;;;;;;;;;;;25.39;41.04;98667.00;5048956;27;103364;-61
2023/06/03 09:06:56;;;;;;;;;;;;;;;25.28;42.51;98664.91;5044704;27;103093;-60
2023/06/03 09:09:24;;;;;;;;;;;;;;;25.45;40.35;98666.19;5050172;27;104328;-61
2023/06/03 09:11:52;;;;;;;;;;;;;;;26.41;39.37;98662.84;5048882;27;103631;-61
2023/06/03 09:14:20;;;;;;;;;;;;;;;25.96;41.52;98666.44;5045994;27;103154;-60
2023/06/03 09:16:48;;;;;;;;;;;;;;;24.81;41.75;98663.13;5049831;27;102825;-61
2023/06/03 09:19:16;;;;;;;;;;;;;;;25.13;42.93;98675.06;5044105;27;102713;-61
2023/06/03 09:21:46;;;;;;;;;;;;;;;26.67;40.66;98672.75;5050113;27;103287;-61
2023/06/03 09:24:14;;;;;;;;;;;;;;;27.02;39.72;98671.41;5049815;27;103310;-61
2023/06/03 09:26:42;;;;;;;;;;;;;;;25.38;41.93;98676.16;5039548;27;104031;-60
2023/06/03 09:30:04;;;;;;;6.22;3.88;;;;;;;27.76;39.19;98665.34;5014480;27;102965;-60
2023/06/03 09:32:35;;;;;;;7.95;4.00;;;;;;;28.69;38.81;98655.22;5014109;27;103168;-60
2023/06/03 09:35:04;;;;;;;7.03;4.55;;;;;;;25.51;40.22;98673.50;5024946;27;104023;-60
2023/06/03 09:37:33;;;;;;;8.18;5.15;;;;;;;25.18;41.75;98664.47;5006320;27;104944;-60
2023/06/03 09:40:01;;;;;;;6.60;4.53;;;;;;;25.73;42.22;98658.75;5007649;27;102825;-60
2023/06/03 09:42:41;;;;;;;6.00;4.15;;;;;;;25.35;42.54;98655.75;5021667;27;102924;-60
2023/06/03 09:45:22;;;;;;;8.32;4.80;;;;;;;26.13;40.71;98647.91;5024460;27;103543;-60
2023/06/03 09:47:51;;;;;;;6.00;4.25;;;;;;;27.60;39.55;98653.13;5020307;27;103214;-61
2023/06/03 09:50:22;;;;;;;6.00;4.68;;;;;;;25.49;43.16;98659.34;5024790;27;103236;-61
2023/06/03 09:52:50;;;;;;;4.82;3.85;;;;;;;26.23;41.69;98662.69;5031277;27;102758;-61
2023/06/03 09:55:28;;;;;;;7.97;4.85;;;;;;;27.29;39.25;98649.56;5008366;27;103285;-61
2023/06/03 09:58:10;;;;;;;5.95;4.53;;;;;;;26.00;41.71;98647.91;5007120;27;104053;-61
2023/06/03 10:00:48;;;;;;;7.28;4.65;;;;;;;26.19;41.99;98650.59;5026969;27;102808;-60
2023/06/03 10:03:18;;;;;;;6.30;4.80;;;;;;;25.40;41.36;98647.06;5024995;27;103424;-60
2023/06/03 10:05:46;;;;;;;6.67;4.97;;;;;;;25.20;42.53;98640.78;5025024;27;103305;-61
2023/06/03 10:08:15;;;;;;;7.50;4.93;;;;;;;25.13;42.31;98646.16;5036123;27;103328;-61
2023/06/03 10:10:56;;;;;;;5.65;4.30;;;;;;;25.81;44.49;98647.72;5010114;27;102857;-61
2023/06/03 10:13:27;;;;;;;7.80;5.10;;;;;;;26.22;41.30;98642.06;5026297;27;102787;-61
2023/06/03 10:15:58;;;;;;;5.57;5.07;;;;;;;25.89;42.98;98642.09;5025855;27;103402;-61
2023/06/03 10:18:38;;;;;;;6.97;4.63;;;;;;;27.12;42.86;98632.16;5024504;27;103775;-60
2023/06/03 10:21:10;;;;;;;7.28;4.50;;;;;;;28.50;40.26;98632.66;5028426;27;103104;-60
2023/06/03 10:23:42;;;;;;;8.25;4.75;;;;;;;27.29;38.91;98641.41;5005984;27;104213;-60
2023/06/03 10:26:11;;;;;;;8.80;4.78;;;;;;;27.81;38.99;98632.91;5025919;27;103572;-61
2023/06/03 10:28:40;;;;;;;6.43;4.43;;;;;;;28.65;39.44;98637.75;5028280;27;103232;-61
2023/06/03 10:31:12;;;;;;;5.97;4.15;;;;;;;29.39;37.16;98625.66;4987006;27;102785;-61
2023/06/03 10:33:41;;;;;;;5.97;4.47;;;;;;;29.46;37.84;98626.38;5004066;27;102764;-61
2023/06/03 10:36:10;;;;;;;5.75;4.20;;;;;;;30.28;36.16;98626.25;5021765;27;104033;-64
2023/06/03 10:38:40;;;;;;;6.80;4.80;;;;;;;27.61;39.24;98622.22;5020469;27;103436;-64
2023/06/03 10:41:09;;;;;;;7.90;4.75;;;;;;;27.43;39.75;98614.03;5009040;27;103318;-64
2023/06/03 10:43:38;;;;;;;10.18;5.40;;;;;;;27.21;40.45;98611.84;4987920;27;103248;-64
2023/06/03 10:46:06;;;;;;;6.60;5.10;;;;;;;27.92;39.01;98613.19;4987509;27;103263;-63
2023/06/03 10:48:40;;;;;;;5.13;4.45;;;;;;;28.38;39.32;98612.72;5006804;27;103188;-64
2023/06/03 10:51:23;;;;;;;6.70;4.88;;;;;;;28.79;37.25;98612.06;5003689;27;103025;-64
2023/06/03 10:54:08;;;;;;;5.57;4.68;;;;;;;27.87;40.75;98610.31;5010243;27;102933;-65
2023/06/03 10:56:43;;;;;;;5.72;4.75;;;;;;;29.26;36.44;98608.47;5014630;27;103229;-65
2023/06/03 10:59:17;;;;;;;6.63;5.10;;;;;;;30.19;35.97;98605.88;4994056;27;104854;-65
2023/06/03 11:01:59;;;;;;;5.13;4.40;;;;;;;30.01;34.93;98608.72;4996111;27;102967;-65
2023/06/03 11:04:30;;;;;;;6.57;4.50;;;;;;;28.91;37.44;98612.09;5023523;27;103343;-65
2023/06/03 11:07:00;;;;;;;5.75;4.55;;;;;;;30.47;36.31;98604.31;5011218;27;104303;-65
2023/06/03 11:09:34;;;;;;;7.13;5.45;;;;;;;29.93;35.76;98603.63;4993718;27;104266;-61
2023/06/03 11:12:09;;;;;;;8.15;5.22;;;;;;;27.05;39.51;98614.06;5010368;27;102970;-61
2023/06/03 11:14:54;;;;;;;6.55;4.60;;;;;;;27.93;38.56;98603.97;5010401;27;102788;-61
2023/06/03 11:17:27;;;;;;;8.20;5.10;;;;;;;28.10;37.52;98601.53;5025324;27;103941;-61
2023/06/03 11:19:58;;;;;;;5.20;4.70;;;;;;;28.74;37.86;98601.84;5010313;27;103188;-64
2023/06/03 11:22:40;;;;;;;6.13;5.13;;;;;;;26.59;39.21;98609.84;5010221;27;102711;-65
2023/06/03 11:25:09;;;;;;;5.70;4.53;;;;;;;29.55;36.35;98604.06;5009073;27;102887;-64
2023/06/03 11:27:37;;;;;;;6.07;5.10;;;;;;;29.03;36.42;98602.94;4992487;27;103312;-64
2023/06/03 11:30:07;;;;;;;7.97;5.30;;;;;;;26.59;39.76;98599.84;4989513;27;104743;-64
2023/06/03 11:32:36;;;;;;;6.72;4.70;;;;;;;27.88;39.76;98597.56;5007285;27;102926;-65
2023/06/03 11:35:29;;;;;;;5.57;5.00;;;;;;;29.48;35.15;98600.59;5007301;27;104123;-65
2023/06/03 11:37:57;;;;;;;7.67;5.43;;;;;;;29.81;35.28;98586.47;5006517;27;103318;-61
2023/06/03 11:40:25;;;;;;;5.88;4.75;;;;;;;30.43;33.79;98585.72;5008790;27;104247;-61
2023/06/03 11:43:06;;;;;;;6.93;5.05;;;;;;;27.88;37.24;98595.69;4987643;27;103047;-61
2023/06/03 11:45:37;;;;;;;8.07;5.35;;;;;;;27.78;37.63;98587.22;5006574;27;102646;-62
2023/06/03 11:48:10;;;;;;;9.70;5.70;;;;;;;27.83;38.11;98581.13;5007393;27;103231;-62
2023/06/03 11:50:49;;;;;;;5.55;4.55;;;;;;;29.62;35.20;98576.69;4986734;27;104221;-61
2023/06/03 11:53:31;;;;;;;7.90;5.13;;;;;;;28.01;37.36;98584.72;4988501;27;102958;-62
2023/06/03 11:56:03;;;;;;;7.50;5.10;;;;;;;27.71;37.21;98578.31;5013173;27;102988;-61
2023/06/03 11:58:32;;;;;;;6.87;5.23;;;;;;;28.52;37.02;98580.81;5018778;27;104075;-62
2023/06/03 12:01:07;;;;;;;7.10;5.13;;;;;;;29.73;34.67;98565.00;5003630;27;103364;-62
2023/06/03 12:03:36;;;;;;;5.67;5.17;;;;;;;29.12;35.92;98577.06;5006407;27;102953;-60
2023/06/03 12:06:06;;;;;;;7.40;4.95;;;;;;;27.73;37.63;98576.22;5011676;27;102769;-60
2023/06/03 12:08:46;;;;;;;7.70;5.28;;;;;;;27.53;39.27;98576.41;5001566;27;103276;-60
2023/06/03 12:11:44;;;;;;;7.17;5.33;;;;;;;26.91;38.58;98570.97;5004575;27;103228;-60
2023/06/03 12:14:29;;;;;;;6.80;5.20;;;;;;;27.00;38.88;98578.59;5006501;27;103400;-60
2023/06/03 12:17:08;;;;;;;6.47;4.95;;;;;;;26.60;39.45;98568.19;5007067;27;102820;-61
2023/06/03 12:19:38;;;;;;;6.30;5.13;;;;;;;25.92;40.59;98570.47;5007068;27;103356;-58
2023/06/03 12:22:08;;;;;;;7.85;5.22;;;;;;;25.90;40.23;98567.16;5006208;27;103302;-61
2023/06/03 12:24:36;;;;;;;5.80;5.18;;;;;;;26.33;39.93;98578.31;5006397;27;102812;-60
2023/06/03 12:27:21;;;;;;;7.28;5.40;;;;;;;26.99;38.11;98568.84;5007971;27;104085;-61
2023/06/03 12:29:52;;;;;;;6.68;5.00;;;;;;;26.00;40.84;98566.69;5018209;27;103769;-61
2023/06/03 12:32:20;;;;;;;5.40;4.90;;;;;;;26.92;39.40;98561.81;4998826;27;103205;-60
2023/06/03 12:34:50;;;;;;;6.85;5.55;;;;;;;26.73;39.09;98562.69;4998597;27;103000;-60
2023/06/03 12:37:30;;;;;;;8.68;5.78;;;;;;;26.27;38.76;98557.50;5016832;27;102991;-60